sensor_id;sensor_type;location;lat;lon;timestamp;P1;durP1;ratioP1;P2;durP2;ratioP2
74753;SDS011;63271;53.340;-6.260;2024-02-28T07:02:34;13.00;;;2.63;;
74753;SDS011;63271;53.340;-6.260;2024-02-28T07:05:02;8.30;;;2.60;;
74753;SDS011;63271;53.340;-6.260;2024-02-28T07:07:29;13.57;;;2.47;;
74753;SDS011;63271;53.340;-6.260;2024-02-28T07:09:56;10.77;;;2.45;;
74753;SDS011;63271;53.340;-6.260;2024-02-28T07:12:23;17.05;;;2.83;;
74753;SDS011;63271;53.340;-6.260;2024-02-28T07:14:52;13.15;;;2.55;;
74753;SDS011;63271;53.340;-6.260;2024-02-28T07:17:18;8.52;;;2.38;;
74753;SDS011;63271;53.340;-6.260;2024-02-28T07:19:43;10.57;;;2.47;;
74753;SDS011;63271;53.340;-6.260;2024-02-28T07:22:09;8.88;;;2.47;;
74753;SDS011;63271;53.340;-6.260;2024-02-28T07:24:34;7.65;;;2.28;;
74753;SDS011;63271;53.340;-6.260;2024-02-28T07:27:02;13.30;;;2.60;;
74753;SDS011;63271;53.340;-6.260;2024-02-28T07:29:28;12.30;;;2.25;;
74753;SDS011;63271;53.340;-6.260;2024-02-28T07:31:53;8.27;;;2.45;;
74753;SDS011;63271;53.340;-6.260;2024-02-28T07:34:19;9.85;;;2.95;;
74753;SDS011;63271;53.340;-6.260;2024-02-28T07:36:46;11.27;;;2.85;;
74753;SDS011;63271;53.340;-6.260;2024-02-28T07:39:11;9.18;;;2.58;;
74753;SDS011;63271;53.340;-6.260;2024-02-28T07:41:38;8.88;;;2.22;;
74753;SDS011;63271;53.340;-6.260;2024-02-28T07:44:04;11.07;;;2.65;;
74753;SDS011;63271;53.340;-6.260;2024-02-28T07:46:30;13.75;;;2.72;;
74753;SDS011;63271;53.340;-6.260;2024-02-28T07:48:55;13.55;;;2.90;;
74753;SDS011;63271;53.340;-6.260;2024-02-28T07:51:23;10.43;;;2.20;;
74753;SDS011;63271;53.340;-6.260;2024-02-28T07:53:48;10.57;;;2.22;;
74753;SDS011;63271;53.340;-6.260;2024-02-28T07:56:17;11.02;;;2.08;;
74753;SDS011;63271;53.340;-6.260;2024-02-28T07:58:45;10.52;;;2.90;;
74753;SDS011;63271;53.340;-6.260;2024-02-28T08:01:11;9.57;;;2.10;;
74753;SDS011;63271;53.340;-6.260;2024-02-28T08:03:39;9.75;;;2.42;;
74753;SDS011;63271;53.340;-6.260;2024-02-28T08:06:04;12.38;;;2.67;;
74753;SDS011;63271;53.340;-6.260;2024-02-28T08:08:30;13.05;;;2.65;;
74753;SDS011;63271;53.340;-6.260;2024-02-28T08:10:55;12.50;;;2.45;;
74753;SDS011;63271;53.340;-6.260;2024-02-28T08:13:25;9.85;;;2.15;;
74753;SDS011;63271;53.340;-6.260;2024-02-28T08:15:53;9.95;;;2.28;;
74753;SDS011;63271;53.340;-6.260;2024-02-28T08:18:19;10.45;;;2.22;;
74753;SDS011;63271;53.340;-6.260;2024-02-28T08:20:47;7.88;;;1.75;;
74753;SDS011;63271;53.340;-6.260;2024-02-28T08:23:14;9.27;;;2.05;;
74753;SDS011;63271;53.340;-6.260;2024-02-28T08:25:40;6.82;;;1.83;;
74753;SDS011;63271;53.340;-6.260;2024-02-28T08:28:05;8.30;;;2.15;;
74753;SDS011;63271;53.340;-6.260;2024-02-28T08:30:31;5.45;;;1.48;;
74753;SDS011;63271;53.340;-6.260;2024-02-28T08:32:59;7.55;;;1.83;;
74753;SDS011;63271;53.340;-6.260;2024-02-28T08:35:24;6.82;;;1.92;;
74753;SDS011;63271;53.340;-6.260;2024-02-28T08:37:50;4.25;;;1.60;;
74753;SDS011;63271;53.340;-6.260;2024-02-28T08:40:15;9.68;;;2.05;;
74753;SDS011;63271;53.340;-6.260;2024-02-28T08:42:43;7.20;;;1.85;;
74753;SDS011;63271;53.340;-6.260;2024-02-28T08:45:09;5.78;;;1.85;;
74753;SDS011;63271;53.340;-6.260;2024-02-28T08:47:37;7.00;;;1.50;;
74753;SDS011;63271;53.340;-6.260;2024-02-28T08:50:03;6.10;;;2.10;;
74753;SDS011;63271;53.340;-6.260;2024-02-28T08:52:29;5.57;;;1.90;;
74753;SDS011;63271;53.340;-6.260;2024-02-28T08:54:55;5.85;;;1.65;;
74753;SDS011;63271;53.340;-6.260;2024-02-28T08:57:20;5.65;;;1.33;;
74753;SDS011;63271;53.340;-6.260;2024-02-28T08:59:50;6.93;;;1.70;;
74753;SDS011;63271;53.340;-6.260;2024-02-28T09:02:18;7.28;;;1.83;;
74753;SDS011;63271;53.340;-6.260;2024-02-28T09:04:47;8.10;;;1.80;;
74753;SDS011;63271;53.340;-6.260;2024-02-28T09:07:17;7.60;;;2.30;;
74753;SDS011;63271;53.340;-6.260;2024-02-28T09:09:50;3.63;;;1.23;;
74753;SDS011;63271;53.340;-6.260;2024-02-28T09:12:21;7.32;;;1.80;;
74753;SDS011;63271;53.340;-6.260;2024-02-28T09:14:52;7.72;;;1.58;;
74753;SDS011;63271;53.340;-6.260;2024-02-28T09:17:22;3.80;;;1.17;;
74753;SDS011;63271;53.340;-6.260;2024-02-28T09:19:48;6.72;;;1.40;;
74753;SDS011;63271;53.340;-6.260;2024-02-28T09:22:13;8.00;;;1.77;;
74753;SDS011;63271;53.340;-6.260;2024-02-28T09:24:42;5.35;;;1.35;;
74753;SDS011;63271;53.340;-6.260;2024-02-28T09:27:07;3.88;;;1.15;;
74753;SDS011;63271;53.340;-6.260;2024-02-28T09:29:35;6.20;;;1.42;;
74753;SDS011;63271;53.340;-6.260;2024-02-28T09:32:00;4.88;;;1.40;;
74753;SDS011;63271;53.340;-6.260;2024-02-28T09:34:26;5.75;;;1.60;;
74753;SDS011;63271;53.340;-6.260;2024-02-28T09:36:54;3.53;;;1.10;;
74753;SDS011;63271;53.340;-6.260;2024-02-28T09:39:19;3.38;;;1.25;;
74753;SDS011;63271;53.340;-6.260;2024-02-28T09:41:49;2.38;;;0.85;;
74753;SDS011;63271;53.340;-6.260;2024-02-28T09:44:15;3.95;;;1.45;;
74753;SDS011;63271;53.340;-6.260;2024-02-28T09:46:44;7.30;;;1.42;;
74753;SDS011;63271;53.340;-6.260;2024-02-28T09:49:09;3.67;;;0.95;;
74753;SDS011;63271;53.340;-6.260;2024-02-28T09:51:35;4.25;;;1.27;;
74753;SDS011;63271;53.340;-6.260;2024-02-28T09:54:04;4.05;;;1.10;;
74753;SDS011;63271;53.340;-6.260;2024-02-28T09:56:30;4.35;;;0.93;;
74753;SDS011;63271;53.340;-6.260;2024-02-28T09:59:04;4.13;;;1.05;;
74753;SDS011;63271;53.340;-6.260;2024-02-28T10:01:29;2.45;;;0.80;;
74753;SDS011;63271;53.340;-6.260;2024-02-28T10:03:58;6.95;;;1.02;;
74753;SDS011;63271;53.340;-6.260;2024-02-28T10:06:24;4.55;;;0.82;;
74753;SDS011;63271;53.340;-6.260;2024-02-28T10:08:50;3.17;;;0.82;;
74753;SDS011;63271;53.340;-6.260;2024-02-28T10:11:22;1.75;;;0.70;;
74753;SDS011;63271;53.340;-6.260;2024-02-28T10:13:48;1.90;;;0.77;;
74753;SDS011;63271;53.340;-6.260;2024-02-28T10:16:14;2.80;;;0.95;;
74753;SDS011;63271;53.340;-6.260;2024-02-28T10:18:43;1.85;;;0.80;;
74753;SDS011;63271;53.340;-6.260;2024-02-28T10:21:09;2.22;;;0.85;;
74753;SDS011;63271;53.340;-6.260;2024-02-28T10:23:36;4.30;;;0.88;;
74753;SDS011;63271;53.340;-6.260;2024-02-28T10:26:04;1.83;;;0.60;;
74753;SDS011;63271;53.340;-6.260;2024-02-28T10:28:29;1.60;;;0.60;;
74753;SDS011;63271;53.340;-6.260;2024-02-28T10:30:57;3.50;;;0.60;;
74753;SDS011;63271;53.340;-6.260;2024-02-28T10:33:27;3.72;;;0.70;;
74753;SDS011;63271;53.340;-6.260;2024-02-28T10:35:54;2.00;;;0.47;;
74753;SDS011;63271;53.340;-6.260;2024-02-28T10:38:20;1.58;;;0.98;;
74753;SDS011;63271;53.340;-6.260;2024-02-28T10:40:48;2.13;;;0.65;;
74753;SDS011;63271;53.340;-6.260;2024-02-28T10:43:13;7.30;;;0.38;;
74753;SDS011;63271;53.340;-6.260;2024-02-28T10:45:42;3.10;;;0.52;;
74753;SDS011;63271;53.340;-6.260;2024-02-28T10:48:08;0.17;;;0.15;;
74753;SDS011;63271;53.340;-6.260;2024-02-28T10:50:33;1.10;;;0.43;;
74753;SDS011;63271;53.340;-6.260;2024-02-28T10:53:04;12.73;;;1.33;;
74753;SDS011;63271;53.340;-6.260;2024-02-28T10:55:32;2.03;;;0.57;;
74753;SDS011;63271;53.340;-6.260;2024-02-28T10:58:03;0.47;;;0.45;;
74753;SDS011;63271;53.340;-6.260;2024-02-28T11:00:32;1.77;;;0.45;;
74753;SDS011;63271;53.340;-6.260;2024-02-28T11:03:06;1.52;;;0.55;;
74753;SDS011;63271;53.340;-6.260;2024-02-28T11:05:39;1.90;;;0.70;;
74753;SDS011;63271;53.340;-6.260;2024-02-28T11:08:09;1.05;;;0.30;;
74753;SDS011;63271;53.340;-6.260;2024-02-28T11:10:35;0.50;;;0.43;;
74753;SDS011;63271;53.340;-6.260;2024-02-28T11:13:03;6.82;;;0.45;;
74753;SDS011;63271;53.340;-6.260;2024-02-28T11:15:31;1.55;;;0.60;;
74753;SDS011;63271;53.340;-6.260;2024-02-28T11:18:06;0.82;;;0.60;;
74753;SDS011;63271;53.340;-6.260;2024-02-28T11:20:33;1.10;;;0.28;;
74753;SDS011;63271;53.340;-6.260;2024-02-28T11:22:59;0.95;;;0.60;;
74753;SDS011;63271;53.340;-6.260;2024-02-28T11:25:27;1.40;;;0.68;;
74753;SDS011;63271;53.340;-6.260;2024-02-28T11:27:55;1.73;;;0.55;;
74753;SDS011;63271;53.340;-6.260;2024-02-28T11:30:21;0.38;;;0.20;;
74753;SDS011;63271;53.340;-6.260;2024-02-28T11:32:46;0.95;;;0.60;;
74753;SDS011;63271;53.340;-6.260;2024-02-28T11:35:12;1.52;;;0.63;;
74753;SDS011;63271;53.340;-6.260;2024-02-28T11:37:40;1.30;;;0.30;;
74753;SDS011;63271;53.340;-6.260;2024-02-28T11:40:06;2.20;;;0.47;;
74753;SDS011;63271;53.340;-6.260;2024-02-28T11:42:34;1.10;;;0.47;;
74753;SDS011;63271;53.340;-6.260;2024-02-28T11:45:00;1.38;;;0.63;;
74753;SDS011;63271;53.340;-6.260;2024-02-28T11:47:28;0.82;;;0.22;;
74753;SDS011;63271;53.340;-6.260;2024-02-28T11:49:57;0.60;;;0.40;;
74753;SDS011;63271;53.340;-6.260;2024-02-28T11:52:23;0.95;;;0.50;;
74753;SDS011;63271;53.340;-6.260;2024-02-28T11:54:50;0.75;;;0.38;;
74753;SDS011;63271;53.340;-6.260;2024-02-28T11:57:19;0.43;;;0.32;;
74753;SDS011;63271;53.340;-6.260;2024-02-28T11:59:44;2.95;;;0.28;;
74753;SDS011;63271;53.340;-6.260;2024-02-28T12:02:13;0.40;;;0.40;;
74753;SDS011;63271;53.340;-6.260;2024-02-28T12:04:42;1.75;;;0.40;;
74753;SDS011;63271;53.340;-6.260;2024-02-28T12:07:10;0.10;;;0.10;;
74753;SDS011;63271;53.340;-6.260;2024-02-28T12:09:36;0.50;;;0.50;;
74753;SDS011;63271;53.340;-6.260;2024-02-28T12:12:03;0.38;;;0.35;;
74753;SDS011;63271;53.340;-6.260;2024-02-28T12:14:37;0.30;;;0.30;;
74753;SDS011;63271;53.340;-6.260;2024-02-28T12:17:05;5.15;;;2.05;;
74753;SDS011;63271;53.340;-6.260;2024-02-28T12:19:30;1.55;;;0.50;;
74753;SDS011;63271;53.340;-6.260;2024-02-28T12:21:56;0.90;;;0.38;;
74753;SDS011;63271;53.340;-6.260;2024-02-28T12:24:23;1.88;;;0.70;;
74753;SDS011;63271;53.340;-6.260;2024-02-28T12:26:49;0.50;;;0.30;;
74753;SDS011;63271;53.340;-6.260;2024-02-28T12:29:14;0.75;;;0.40;;
74753;SDS011;63271;53.340;-6.260;2024-02-28T12:31:40;2.35;;;0.32;;
74753;SDS011;63271;53.340;-6.260;2024-02-28T12:34:05;0.32;;;0.32;;
74753;SDS011;63271;53.340;-6.260;2024-02-28T12:36:31;0.70;;;0.45;;
74753;SDS011;63271;53.340;-6.260;2024-02-28T12:38:59;1.05;;;0.43;;
74753;SDS011;63271;53.340;-6.260;2024-02-28T12:41:28;0.85;;;0.22;;
74753;SDS011;63271;53.340;-6.260;2024-02-28T12:43:53;0.43;;;0.40;;
74753;SDS011;63271;53.340;-6.260;2024-02-28T12:46:19;0.30;;;0.20;;
74753;SDS011;63271;53.340;-6.260;2024-02-28T12:48:47;0.35;;;0.35;;
74753;SDS011;63271;53.340;-6.260;2024-02-28T12:54:10;0.20;;;0.20;;
74753;SDS011;63271;53.340;-6.260;2024-02-28T12:56:36;0.50;;;0.40;;
74753;SDS011;63271;53.340;-6.260;2024-02-28T12:59:03;1.13;;;0.50;;
74753;SDS011;63271;53.340;-6.260;2024-02-28T13:01:29;2.80;;;0.50;;
74753;SDS011;63271;53.340;-6.260;2024-02-28T13:03:55;1.13;;;0.30;;
74753;SDS011;63271;53.340;-6.260;2024-02-28T13:06:20;2.53;;;0.63;;
74753;SDS011;63271;53.340;-6.260;2024-02-28T13:08:46;1.02;;;0.50;;
74753;SDS011;63271;53.340;-6.260;2024-02-28T13:11:17;1.20;;;0.50;;
74753;SDS011;63271;53.340;-6.260;2024-02-28T13:13:44;1.02;;;0.40;;
74753;SDS011;63271;53.340;-6.260;2024-02-28T13:16:09;0.90;;;0.40;;
74753;SDS011;63271;53.340;-6.260;2024-02-28T13:18:34;0.22;;;0.22;;
74753;SDS011;63271;53.340;-6.260;2024-02-28T13:21:00;1.88;;;0.45;;
74753;SDS011;63271;53.340;-6.260;2024-02-28T13:23:25;1.33;;;0.40;;
74753;SDS011;63271;53.340;-6.260;2024-02-28T13:25:52;0.75;;;0.50;;
74753;SDS011;63271;53.340;-6.260;2024-02-28T13:28:17;0.88;;;0.50;;
74753;SDS011;63271;53.340;-6.260;2024-02-28T13:30:42;0.50;;;0.50;;
74753;SDS011;63271;53.340;-6.260;2024-02-28T13:33:08;0.47;;;0.43;;
74753;SDS011;63271;53.340;-6.260;2024-02-28T13:35:34;1.55;;;0.50;;
74753;SDS011;63271;53.340;-6.260;2024-02-28T13:38:00;1.00;;;0.35;;
74753;SDS011;63271;53.340;-6.260;2024-02-28T13:40:26;0.35;;;0.32;;
74753;SDS011;63271;53.340;-6.260;2024-02-28T13:42:52;0.70;;;0.35;;
74753;SDS011;63271;53.340;-6.260;2024-02-28T13:45:18;0.95;;;0.40;;
74753;SDS011;63271;53.340;-6.260;2024-02-28T13:47:46;0.93;;;0.57;;
74753;SDS011;63271;53.340;-6.260;2024-02-28T13:50:13;2.85;;;0.40;;
74753;SDS011;63271;53.340;-6.260;2024-02-28T13:52:39;1.17;;;0.45;;
74753;SDS011;63271;53.340;-6.260;2024-02-28T13:55:04;1.70;;;0.50;;
74753;SDS011;63271;53.340;-6.260;2024-02-28T13:57:30;1.52;;;0.65;;
74753;SDS011;63271;53.340;-6.260;2024-02-28T13:59:56;0.63;;;0.63;;
74753;SDS011;63271;53.340;-6.260;2024-02-28T14:02:21;0.35;;;0.35;;
74753;SDS011;63271;53.340;-6.260;2024-02-28T14:04:51;1.02;;;0.55;;
74753;SDS011;63271;53.340;-6.260;2024-02-28T14:07:17;0.40;;;0.40;;
74753;SDS011;63271;53.340;-6.260;2024-02-28T14:09:43;0.70;;;0.60;;
74753;SDS011;63271;53.340;-6.260;2024-02-28T14:12:11;0.80;;;0.60;;
74753;SDS011;63271;53.340;-6.260;2024-02-28T14:14:38;1.27;;;0.60;;
74753;SDS011;63271;53.340;-6.260;2024-02-28T14:17:07;2.50;;;0.65;;
74753;SDS011;63271;53.340;-6.260;2024-02-28T14:19:32;1.05;;;0.63;;
74753;SDS011;63271;53.340;-6.260;2024-02-28T14:21:59;1.77;;;0.70;;
74753;SDS011;63271;53.340;-6.260;2024-02-28T14:24:24;0.57;;;0.50;;
74753;SDS011;63271;53.340;-6.260;2024-02-28T14:26:50;0.43;;;0.43;;
74753;SDS011;63271;53.340;-6.260;2024-02-28T14:29:15;0.47;;;0.40;;
74753;SDS011;63271;53.340;-6.260;2024-02-28T14:31:41;0.50;;;0.50;;
74753;SDS011;63271;53.340;-6.260;2024-02-28T14:34:08;2.15;;;0.50;;
74753;SDS011;63271;53.340;-6.260;2024-02-28T14:36:34;0.98;;;0.47;;
74753;SDS011;63271;53.340;-6.260;2024-02-28T14:39:01;0.75;;;0.40;;
74753;SDS011;63271;53.340;-6.260;2024-02-28T14:41:29;0.25;;;0.25;;
74753;SDS011;63271;53.340;-6.260;2024-02-28T14:43:59;3.13;;;0.68;;
74753;SDS011;63271;53.340;-6.260;2024-02-28T14:46:24;0.85;;;0.40;;
74753;SDS011;63271;53.340;-6.260;2024-02-28T14:48:52;0.82;;;0.60;;
74753;SDS011;63271;53.340;-6.260;2024-02-28T14:51:18;0.52;;;0.43;;
74753;SDS011;63271;53.340;-6.260;2024-02-28T14:53:45;1.10;;;0.55;;
74753;SDS011;63271;53.340;-6.260;2024-02-28T14:56:11;1.00;;;0.57;;
74753;SDS011;63271;53.340;-6.260;2024-02-28T14:58:36;3.13;;;0.50;;
74753;SDS011;63271;53.340;-6.260;2024-02-28T15:01:02;0.43;;;0.43;;
74753;SDS011;63271;53.340;-6.260;2024-02-28T15:03:30;0.30;;;0.30;;
74753;SDS011;63271;53.340;-6.260;2024-02-28T15:05:56;1.27;;;1.08;;
74753;SDS011;63271;53.340;-6.260;2024-02-28T15:08:21;1.73;;;0.50;;
74753;SDS011;63271;53.340;-6.260;2024-02-28T15:10:48;2.45;;;0.80;;
74753;SDS011;63271;53.340;-6.260;2024-02-28T15:13:14;0.38;;;0.38;;
74753;SDS011;63271;53.340;-6.260;2024-02-28T15:15:39;0.98;;;0.65;;
74753;SDS011;63271;53.340;-6.260;2024-02-28T15:18:05;0.98;;;0.65;;
74753;SDS011;63271;53.340;-6.260;2024-02-28T15:20:30;1.17;;;0.50;;
74753;SDS011;63271;53.340;-6.260;2024-02-28T15:22:56;1.30;;;0.70;;
74753;SDS011;63271;53.340;-6.260;2024-02-28T15:25:21;0.73;;;0.55;;
74753;SDS011;63271;53.340;-6.260;2024-02-28T15:27:49;0.75;;;0.60;;
74753;SDS011;63271;53.340;-6.260;2024-02-28T15:30:14;0.65;;;0.60;;
74753;SDS011;63271;53.340;-6.260;2024-02-28T15:32:40;0.47;;;0.47;;
74753;SDS011;63271;53.340;-6.260;2024-02-28T15:35:07;1.27;;;0.65;;
74753;SDS011;63271;53.340;-6.260;2024-02-28T15:37:33;2.42;;;0.70;;
74753;SDS011;63271;53.340;-6.260;2024-02-28T15:40:00;1.20;;;0.80;;
74753;SDS011;63271;53.340;-6.260;2024-02-28T15:42:30;1.85;;;0.68;;
74753;SDS011;63271;53.340;-6.260;2024-02-28T15:44:56;1.38;;;0.70;;
74753;SDS011;63271;53.340;-6.260;2024-02-28T15:47:22;0.70;;;0.70;;
74753;SDS011;63271;53.340;-6.260;2024-02-28T15:49:47;1.00;;;0.80;;
74753;SDS011;63271;53.340;-6.260;2024-02-28T15:52:15;0.98;;;0.60;;
74753;SDS011;63271;53.340;-6.260;2024-02-28T15:54:40;1.65;;;0.85;;
74753;SDS011;63271;53.340;-6.260;2024-02-28T15:57:06;1.08;;;0.60;;
74753;SDS011;63271;53.340;-6.260;2024-02-28T15:59:31;1.58;;;0.57;;
74753;SDS011;63271;53.340;-6.260;2024-02-28T16:01:57;1.55;;;0.80;;
74753;SDS011;63271;53.340;-6.260;2024-02-28T16:04:23;1.77;;;0.65;;
74753;SDS011;63271;53.340;-6.260;2024-02-28T16:06:49;3.95;;;0.70;;
74753;SDS011;63271;53.340;-6.260;2024-02-28T16:09:15;0.98;;;0.68;;
74753;SDS011;63271;53.340;-6.260;2024-02-28T16:11:42;0.73;;;0.47;;
74753;SDS011;63271;53.340;-6.260;2024-02-28T16:14:10;2.45;;;0.93;;
74753;SDS011;63271;53.340;-6.260;2024-02-28T16:16:36;2.83;;;0.80;;
74753;SDS011;63271;53.340;-6.260;2024-02-28T16:19:01;1.05;;;0.73;;
74753;SDS011;63271;53.340;-6.260;2024-02-28T16:21:27;0.98;;;0.70;;
74753;SDS011;63271;53.340;-6.260;2024-02-28T16:23:56;1.17;;;0.70;;
74753;SDS011;63271;53.340;-6.260;2024-02-28T16:26:25;0.82;;;0.50;;
74753;SDS011;63271;53.340;-6.260;2024-02-28T16:28:50;2.25;;;0.80;;
74753;SDS011;63271;53.340;-6.260;2024-02-28T16:31:16;0.70;;;0.70;;
74753;SDS011;63271;53.340;-6.260;2024-02-28T16:33:41;0.50;;;0.50;;
74753;SDS011;63271;53.340;-6.260;2024-02-28T16:36:07;1.95;;;0.70;;
74753;SDS011;63271;53.340;-6.260;2024-02-28T16:38:32;1.15;;;0.80;;
74753;SDS011;63271;53.340;-6.260;2024-02-28T16:41:00;1.15;;;0.70;;
74753;SDS011;63271;53.340;-6.260;2024-02-28T16:43:27;1.05;;;0.57;;
74753;SDS011;63271;53.340;-6.260;2024-02-28T16:45:53;0.98;;;0.80;;
74753;SDS011;63271;53.340;-6.260;2024-02-28T16:48:21;1.00;;;0.70;;
74753;SDS011;63271;53.340;-6.260;2024-02-28T16:50:47;1.30;;;0.90;;
74753;SDS011;63271;53.340;-6.260;2024-02-28T16:53:17;0.50;;;0.50;;
74753;SDS011;63271;53.340;-6.260;2024-02-28T16:55:46;3.75;;;0.82;;
74753;SDS011;63271;53.340;-6.260;2024-02-28T16:58:11;1.77;;;0.65;;
74753;SDS011;63271;53.340;-6.260;2024-02-28T17:00:37;0.65;;;0.60;;
74753;SDS011;63271;53.340;-6.260;2024-02-28T17:03:02;0.73;;;0.63;;
74753;SDS011;63271;53.340;-6.260;2024-02-28T17:05:29;0.80;;;0.60;;
74753;SDS011;63271;53.340;-6.260;2024-02-28T17:07:55;1.42;;;0.80;;
74753;SDS011;63271;53.340;-6.260;2024-02-28T17:10:23;1.88;;;0.63;;
74753;SDS011;63271;53.340;-6.260;2024-02-28T17:12:51;0.90;;;0.55;;
74753;SDS011;63271;53.340;-6.260;2024-02-28T17:15:18;1.02;;;0.57;;
74753;SDS011;63271;53.340;-6.260;2024-02-28T17:17:44;0.77;;;0.77;;
74753;SDS011;63271;53.340;-6.260;2024-02-28T17:20:10;0.73;;;0.70;;
74753;SDS011;63271;53.340;-6.260;2024-02-28T17:22:37;2.42;;;0.57;;
74753;SDS011;63271;53.340;-6.260;2024-02-28T17:25:05;1.35;;;1.08;;
74753;SDS011;63271;53.340;-6.260;2024-02-28T17:27:34;1.27;;;0.80;;
74753;SDS011;63271;53.340;-6.260;2024-02-28T17:29:59;1.00;;;0.77;;
74753;SDS011;63271;53.340;-6.260;2024-02-28T17:32:29;0.95;;;0.90;;
74753;SDS011;63271;53.340;-6.260;2024-02-28T17:34:54;2.30;;;1.02;;
74753;SDS011;63271;53.340;-6.260;2024-02-28T17:37:20;1.52;;;1.02;;
74753;SDS011;63271;53.340;-6.260;2024-02-28T17:39:46;1.00;;;0.70;;
74753;SDS011;63271;53.340;-6.260;2024-02-28T17:42:12;1.20;;;0.90;;
74753;SDS011;63271;53.340;-6.260;2024-02-28T17:44:40;1.05;;;0.73;;
74753;SDS011;63271;53.340;-6.260;2024-02-28T17:47:05;1.15;;;0.80;;
74753;SDS011;63271;53.340;-6.260;2024-02-28T17:49:31;2.75;;;1.02;;
74753;SDS011;63271;53.340;-6.260;2024-02-28T17:51:56;1.88;;;0.90;;
74753;SDS011;63271;53.340;-6.260;2024-02-28T17:54:26;0.90;;;0.70;;
74753;SDS011;63271;53.340;-6.260;2024-02-28T17:56:52;1.35;;;0.73;;
74753;SDS011;63271;53.340;-6.260;2024-02-28T17:59:17;1.70;;;0.93;;
74753;SDS011;63271;53.340;-6.260;2024-02-28T18:01:43;2.55;;;1.10;;
74753;SDS011;63271;53.340;-6.260;2024-02-28T18:04:08;2.15;;;0.75;;
74753;SDS011;63271;53.340;-6.260;2024-02-28T18:06:34;2.92;;;0.93;;
74753;SDS011;63271;53.340;-6.260;2024-02-28T18:08:59;1.80;;;1.00;;
74753;SDS011;63271;53.340;-6.260;2024-02-28T18:11:27;1.10;;;0.90;;
74753;SDS011;63271;53.340;-6.260;2024-02-28T18:13:53;1.38;;;0.65;;
74753;SDS011;63271;53.340;-6.260;2024-02-28T18:16:21;2.78;;;1.15;;
74753;SDS011;63271;53.340;-6.260;2024-02-28T18:18:47;1.83;;;0.90;;
74753;SDS011;63271;53.340;-6.260;2024-02-28T18:21:12;1.58;;;0.90;;
74753;SDS011;63271;53.340;-6.260;2024-02-28T18:23:38;1.80;;;0.93;;
74753;SDS011;63271;53.340;-6.260;2024-02-28T18:26:03;1.42;;;0.82;;
74753;SDS011;63271;53.340;-6.260;2024-02-28T18:28:29;2.58;;;1.10;;
74753;SDS011;63271;53.340;-6.260;2024-02-28T18:30:54;1.17;;;1.00;;
74753;SDS011;63271;53.340;-6.260;2024-02-28T18:33:20;0.95;;;0.82;;
74753;SDS011;63271;53.340;-6.260;2024-02-28T18:35:45;1.67;;;0.98;;
74753;SDS011;63271;53.340;-6.260;2024-02-28T18:38:25;1.23;;;0.80;;
74753;SDS011;63271;53.340;-6.260;2024-02-28T18:40:51;3.20;;;1.00;;
74753;SDS011;63271;53.340;-6.260;2024-02-28T18:43:17;3.58;;;1.27;;
74753;SDS011;63271;53.340;-6.260;2024-02-28T18:45:43;1.35;;;0.70;;
74753;SDS011;63271;53.340;-6.260;2024-02-28T18:48:09;1.55;;;0.77;;
74753;SDS011;63271;53.340;-6.260;2024-02-28T18:50:35;1.27;;;0.90;;
74753;SDS011;63271;53.340;-6.260;2024-02-28T18:53:00;0.95;;;0.85;;
74753;SDS011;63271;53.340;-6.260;2024-02-28T18:55:26;0.85;;;0.85;;
74753;SDS011;63271;53.340;-6.260;2024-02-28T18:57:51;3.63;;;1.20;;
74753;SDS011;63271;53.340;-6.260;2024-02-28T19:00:19;1.38;;;1.05;;
74753;SDS011;63271;53.340;-6.260;2024-02-28T19:02:46;2.47;;;1.15;;
74753;SDS011;63271;53.340;-6.260;2024-02-28T19:05:13;5.88;;;1.20;;
74753;SDS011;63271;53.340;-6.260;2024-02-28T19:07:39;4.40;;;1.23;;
74753;SDS011;63271;53.340;-6.260;2024-02-28T19:10:05;2.63;;;1.10;;
74753;SDS011;63271;53.340;-6.260;2024-02-28T19:12:31;1.27;;;0.90;;
74753;SDS011;63271;53.340;-6.260;2024-02-28T19:14:57;1.98;;;1.10;;
74753;SDS011;63271;53.340;-6.260;2024-02-28T19:17:22;2.90;;;1.20;;
74753;SDS011;63271;53.340;-6.260;2024-02-28T19:19:50;3.20;;;1.35;;
74753;SDS011;63271;53.340;-6.260;2024-02-28T19:22:15;3.40;;;1.25;;
74753;SDS011;63271;53.340;-6.260;2024-02-28T19:24:49;1.25;;;0.95;;
74753;SDS011;63271;53.340;-6.260;2024-02-28T19:27:15;1.88;;;1.20;;
74753;SDS011;63271;53.340;-6.260;2024-02-28T19:29:41;1.90;;;1.08;;
74753;SDS011;63271;53.340;-6.260;2024-02-28T19:32:07;3.33;;;1.10;;
74753;SDS011;63271;53.340;-6.260;2024-02-28T19:34:33;2.80;;;1.08;;
74753;SDS011;63271;53.340;-6.260;2024-02-28T19:36:59;1.58;;;0.90;;
74753;SDS011;63271;53.340;-6.260;2024-02-28T19:39:24;1.63;;;0.95;;
74753;SDS011;63271;53.340;-6.260;2024-02-28T19:41:50;3.67;;;1.33;;
74753;SDS011;63271;53.340;-6.260;2024-02-28T19:44:15;2.60;;;1.10;;
74753;SDS011;63271;53.340;-6.260;2024-02-28T19:46:44;2.95;;;1.30;;
74753;SDS011;63271;53.340;-6.260;2024-02-28T19:49:10;2.95;;;1.42;;
74753;SDS011;63271;53.340;-6.260;2024-02-28T19:51:40;2.90;;;0.95;;
74753;SDS011;63271;53.340;-6.260;2024-02-28T19:54:07;1.58;;;0.70;;
74753;SDS011;63271;53.340;-6.260;2024-02-28T19:56:33;2.60;;;1.20;;
74753;SDS011;63271;53.340;-6.260;2024-02-28T19:58:59;0.80;;;0.80;;
